createdAt,value
2023-04-09T00:00:23.110Z,23.27
2023-04-09T00:05:24.525Z,22.77
2023-04-09T00:10:25.965Z,22.80
2023-04-09T00:15:31.151Z,22.17
2023-04-09T00:20:33.271Z,23.25
2023-04-09T00:25:34.962Z,22.65
2023-04-09T00:30:36.459Z,23.33
2023-04-09T00:35:37.961Z,24.65
2023-04-09T00:40:39.462Z,23.52
2023-04-09T00:45:41.424Z,22.50
2023-04-09T00:50:43.168Z,23.00
2023-04-09T00:55:45.795Z,23.50
2023-04-09T01:00:47.335Z,21.85
2023-04-09T01:06:05.879Z,24.10
2023-04-09T01:11:24.084Z,24.20
2023-04-09T01:16:25.802Z,24.65
2023-04-09T01:21:32.066Z,23.73
2023-04-09T01:27:03.197Z,22.20
2023-04-09T01:32:07.152Z,23.05
2023-04-09T01:37:09.460Z,23.40
2023-04-09T01:42:12.865Z,25.08
2023-04-09T01:47:14.379Z,23.85
2023-04-09T01:52:15.892Z,23.98
2023-04-09T01:57:17.343Z,23.95
2023-04-09T02:02:27.913Z,23.83
2023-04-09T02:07:40.878Z,24.80
2023-04-09T02:12:48.328Z,23.30
2023-04-09T02:17:50.330Z,26.00
2023-04-09T02:22:51.807Z,25.90
2023-04-09T02:27:53.251Z,25.90
2023-04-09T02:32:54.734Z,25.17
2023-04-09T02:37:56.222Z,27.00
2023-04-09T02:42:58.368Z,25.52
2023-04-09T02:47:59.857Z,26.70
2023-04-09T02:53:01.316Z,26.58
2023-04-09T02:58:02.757Z,27.30
2023-04-09T03:03:04.591Z,26.65
2023-04-09T03:08:06.579Z,26.48
2023-04-09T03:13:08.159Z,26.67
2023-04-09T03:18:09.701Z,27.63
2023-04-09T03:23:11.745Z,28.02
2023-04-09T03:28:13.308Z,27.00
2023-04-09T03:33:14.868Z,27.95
2023-04-09T03:38:16.437Z,29.15
2023-04-09T03:43:17.993Z,27.90
2023-04-09T03:48:19.534Z,28.42
2023-04-09T03:53:21.154Z,26.90
2023-04-09T03:58:22.736Z,28.17
2023-04-09T04:03:24.397Z,29.58
2023-04-09T04:08:26.074Z,28.58
2023-04-09T04:13:27.664Z,27.02
2023-04-09T04:18:29.270Z,30.02
2023-04-09T04:23:30.853Z,28.50
2023-04-09T04:28:32.427Z,29.95
2023-04-09T04:33:34.002Z,31.27
2023-04-09T04:38:36.044Z,28.77
2023-04-09T04:43:37.806Z,28.88
2023-04-09T04:48:39.399Z,28.40
2023-04-09T04:53:41.213Z,29.73
2023-04-09T04:58:44.006Z,28.17
2023-04-09T05:03:45.684Z,30.27
2023-04-09T05:08:47.301Z,28.92
2023-04-09T05:13:48.897Z,30.17
2023-04-09T05:18:51.107Z,28.70
2023-04-09T05:23:52.778Z,30.98
2023-04-09T05:28:54.532Z,29.98
2023-04-09T05:33:56.068Z,28.15
2023-04-09T05:38:57.636Z,29.55
2023-04-09T05:44:00.847Z,30.05
2023-04-09T05:49:02.599Z,34.80
2023-04-09T05:54:04.175Z,30.25
2023-04-09T05:59:05.629Z,30.90
2023-04-09T06:04:07.368Z,27.50
2023-04-09T06:09:08.911Z,29.50
2023-04-09T06:14:12.357Z,30.00
2023-04-09T06:19:16.339Z,32.72
2023-04-09T06:24:17.781Z,33.58
2023-04-09T06:29:19.221Z,31.83
2023-04-09T06:34:20.938Z,29.75
2023-04-09T06:39:22.363Z,30.20
2023-04-09T06:44:24.386Z,30.25
2023-04-09T06:49:26.214Z,29.02
2023-04-09T06:54:27.665Z,28.13
2023-04-09T06:59:29.134Z,28.85
2023-04-09T07:04:30.984Z,28.88
2023-04-09T07:09:32.470Z,27.38
2023-04-09T07:14:33.923Z,24.50
2023-04-09T07:19:35.354Z,28.98
2023-04-09T07:24:37.145Z,31.38
2023-04-09T07:29:38.560Z,25.92
2023-04-09T07:34:39.981Z,28.63
2023-04-09T07:39:42.593Z,29.02
2023-04-09T07:44:44.086Z,33.97
2023-04-09T07:49:45.507Z,28.80
2023-04-09T07:54:46.945Z,29.38
2023-04-09T07:59:48.724Z,29.92
2023-04-09T08:04:50.761Z,29.25
2023-04-09T08:09:52.303Z,29.60
2023-04-09T08:14:53.744Z,30.55
2023-04-09T08:19:55.176Z,31.98
2023-04-09T08:24:58.021Z,29.75
2023-04-09T08:29:59.593Z,29.30
2023-04-09T08:35:01.025Z,28.35
2023-04-09T08:40:02.953Z,27.20
2023-04-09T08:45:05.434Z,30.77
2023-04-09T08:50:07.191Z,28.33
2023-04-09T08:55:11.592Z,27.55
2023-04-09T09:00:13.412Z,27.45
2023-04-09T09:05:14.901Z,27.55
2023-04-09T09:10:17.190Z,30.25
2023-04-09T09:15:29.370Z,27.17
2023-04-09T09:20:30.794Z,27.75
2023-04-09T09:25:38.380Z,28.00
2023-04-09T09:30:41.026Z,26.85
2023-04-09T09:35:49.161Z,25.88
2023-04-09T09:40:50.648Z,26.80
2023-04-09T09:45:53.427Z,26.83
2023-04-09T09:50:55.183Z,26.73
2023-04-09T09:56:00.003Z,25.85
2023-04-09T10:01:02.947Z,27.23
2023-04-09T10:06:04.698Z,30.48
2023-04-09T10:11:07.781Z,25.80
2023-04-09T10:16:09.813Z,24.75
2023-04-09T10:21:30.683Z,27.17
2023-04-09T10:26:36.631Z,28.55
2023-04-09T10:32:05.057Z,29.02
2023-04-09T10:37:14.219Z,30.77
2023-04-09T10:42:24.774Z,35.25
2023-04-09T10:47:34.611Z,32.70
2023-04-09T10:52:40.930Z,33.20
2023-04-09T10:57:43.045Z,30.65
2023-04-09T11:03:02.886Z,27.30
2023-04-09T11:08:07.727Z,28.08
2023-04-09T11:13:16.162Z,27.30
2023-04-09T11:18:22.939Z,25.50
2023-04-09T11:23:25.352Z,23.40
2023-04-09T11:28:26.958Z,25.70
2023-04-09T11:33:33.257Z,24.30
2023-04-09T11:38:37.057Z,23.83
2023-04-09T11:43:38.539Z,23.58
2023-04-09T11:48:40.343Z,26.35
2023-04-09T11:53:41.961Z,27.48
2023-04-09T11:58:47.976Z,25.27
2023-04-09T12:03:56.266Z,25.90
2023-04-09T12:08:59.260Z,26.50
2023-04-09T12:14:04.905Z,26.52
2023-04-09T12:19:08.092Z,24.70
2023-04-09T12:24:09.519Z,25.95
2023-04-09T12:29:10.967Z,24.48
2023-04-09T12:34:12.670Z,25.15
2023-04-09T12:39:14.138Z,24.55
2023-04-09T12:44:15.663Z,24.30
2023-04-09T12:49:17.083Z,24.27
2023-04-09T12:54:18.555Z,26.27
2023-04-09T12:59:20.004Z,25.00
2023-04-09T13:04:21.502Z,25.58
2023-04-09T13:09:23.065Z,25.65
2023-04-09T13:14:24.485Z,25.73
2023-04-09T13:19:26.100Z,24.52
2023-04-09T13:24:27.760Z,25.42
2023-04-09T13:29:29.450Z,25.70
2023-04-09T13:34:30.964Z,26.90
2023-04-09T13:39:32.888Z,27.17
2023-04-09T13:44:35.181Z,26.52
2023-04-09T13:49:36.691Z,25.02
2023-04-09T13:54:38.165Z,25.63
2023-04-09T13:59:41.667Z,26.15
2023-04-09T14:04:43.273Z,25.52
2023-04-09T14:09:44.893Z,26.58
2023-04-09T14:14:46.342Z,26.02
2023-04-09T14:19:47.818Z,26.42
2023-04-09T14:24:49.360Z,26.50
2023-04-09T14:29:50.934Z,27.23
2023-04-09T14:34:52.350Z,27.42
2023-04-09T14:39:53.770Z,23.88
2023-04-09T14:44:55.251Z,27.63
2023-04-09T14:49:56.689Z,28.08
2023-04-09T14:54:58.799Z,27.45
2023-04-09T15:00:00.256Z,27.48
2023-04-09T15:05:02.878Z,27.17
2023-04-09T15:10:04.766Z,27.15
2023-04-09T15:15:07.846Z,25.98
2023-04-09T15:20:09.645Z,29.20
2023-04-09T15:25:13.096Z,28.30
2023-04-09T15:30:15.720Z,27.90
2023-04-09T15:35:23.951Z,27.48
2023-04-09T15:40:26.120Z,26.98
2023-04-09T15:45:27.591Z,28.73
2023-04-09T15:50:29.050Z,28.80
2023-04-09T15:55:30.745Z,27.20
2023-04-09T16:00:32.201Z,27.02
2023-04-09T16:05:33.647Z,25.00
2023-04-09T16:10:35.106Z,26.77
2023-04-09T16:15:36.562Z,26.30
2023-04-09T16:20:37.986Z,25.90
2023-04-09T16:25:39.398Z,29.77
2023-04-09T16:30:40.914Z,43.70
2023-04-09T16:35:42.823Z,39.72
2023-04-09T16:40:44.383Z,33.50
2023-04-09T16:45:46.572Z,26.48
2023-04-09T16:50:48.126Z,29.48
2023-04-09T16:55:50.045Z,28.38
2023-04-09T17:00:52.225Z,29.65
2023-04-09T17:05:53.880Z,29.35
2023-04-09T17:11:01.926Z,28.73
2023-04-09T17:16:03.821Z,30.10
2023-04-09T17:21:06.755Z,27.42
2023-04-09T17:26:08.351Z,33.85
2023-04-09T17:31:14.487Z,31.35
2023-04-09T17:36:20.265Z,31.50
2023-04-09T17:41:22.661Z,30.85
2023-04-09T17:46:24.474Z,34.33
2023-04-09T17:51:27.036Z,33.33
2023-04-09T17:56:28.453Z,31.85
2023-04-09T18:01:29.985Z,32.70
2023-04-09T18:06:31.547Z,32.67
2023-04-09T18:11:33.086Z,31.30
2023-04-09T18:16:38.044Z,31.38
2023-04-09T18:21:39.518Z,31.02
2023-04-09T18:26:41.078Z,31.45
2023-04-09T18:31:42.700Z,29.98
2023-04-09T18:36:44.253Z,30.60
2023-04-09T18:41:45.775Z,28.08
2023-04-09T18:46:47.264Z,36.72
2023-04-09T18:51:48.750Z,29.60
2023-04-09T18:56:50.264Z,28.02
2023-04-09T19:01:51.864Z,26.98
2023-04-09T19:06:56.559Z,27.80
2023-04-09T19:11:58.191Z,28.75
2023-04-09T19:16:59.837Z,27.33
2023-04-09T19:22:01.731Z,28.95
2023-04-09T19:27:09.579Z,29.33
2023-04-09T19:32:13.252Z,29.15
2023-04-09T19:37:16.380Z,27.38
2023-04-09T19:42:17.813Z,28.05
2023-04-09T19:47:19.433Z,33.42
2023-04-09T19:52:21.489Z,39.75
2023-04-09T19:57:23.019Z,43.00
2023-04-09T20:02:25.355Z,41.88
2023-04-09T20:07:27.245Z,39.97
2023-04-09T20:12:29.544Z,36.78
2023-04-09T20:17:31.119Z,40.20
2023-04-09T20:22:32.806Z,34.70
2023-04-09T20:27:34.812Z,38.63
2023-04-09T20:32:37.625Z,36.85
2023-04-09T20:37:39.234Z,32.55
2023-04-09T20:42:41.327Z,32.70
2023-04-09T20:47:42.967Z,34.35
2023-04-09T20:52:44.721Z,33.47
2023-04-09T20:57:46.471Z,56.78
2023-04-09T21:02:48.134Z,37.25
2023-04-09T21:07:50.003Z,31.17
2023-04-09T21:12:51.486Z,31.65
2023-04-09T21:17:53.001Z,28.98
2023-04-09T21:22:54.521Z,32.90
2023-04-09T21:27:55.994Z,33.15
2023-04-09T21:32:59.592Z,35.50
2023-04-09T21:38:02.875Z,34.75
2023-04-09T21:43:04.320Z,35.47
2023-04-09T21:48:07.125Z,36.00
2023-04-09T21:53:08.891Z,38.85
2023-04-09T21:58:11.872Z,39.13
2023-04-09T22:03:13.504Z,43.08
2023-04-09T22:08:14.985Z,37.47
2023-04-09T22:13:16.446Z,36.03
2023-04-09T22:18:17.898Z,34.10
2023-04-09T22:23:19.313Z,34.10
2023-04-09T22:28:20.774Z,35.75
2023-04-09T22:33:22.180Z,35.97
2023-04-09T22:38:23.998Z,33.65
2023-04-09T22:43:25.528Z,33.20
2023-04-09T22:48:27.183Z,36.90
2023-04-09T22:53:28.657Z,37.42
2023-04-09T22:58:30.060Z,38.05
2023-04-09T23:03:32.148Z,41.80
2023-04-09T23:08:33.589Z,43.33
2023-04-09T23:13:35.042Z,40.38
2023-04-09T23:18:37.138Z,35.92
2023-04-09T23:23:39.138Z,36.67
2023-04-09T23:28:40.972Z,36.53
2023-04-09T23:33:42.494Z,35.15
2023-04-09T23:38:46.840Z,33.88
2023-04-09T23:43:48.261Z,33.38
2023-04-09T23:48:49.714Z,32.85
2023-04-09T23:53:51.513Z,33.17
2023-04-09T23:58:53.201Z,32.40
